createdAt,value
2022-09-20T00:01:10.469Z,99.90
2022-09-20T00:03:40.741Z,99.90
2022-09-20T00:06:10.179Z,99.90
2022-09-20T00:08:37.462Z,99.90
2022-09-20T00:11:06.621Z,99.90
2022-09-20T00:13:35.443Z,99.90
2022-09-20T00:16:07.117Z,99.90
2022-09-20T00:18:34.372Z,99.90
2022-09-20T00:21:01.386Z,99.90
2022-09-20T00:23:30.138Z,99.90
2022-09-20T00:26:04.441Z,99.90
2022-09-20T00:28:32.340Z,99.90
2022-09-20T00:30:59.383Z,99.90
2022-09-20T00:33:49.522Z,99.90
2022-09-20T00:36:16.740Z,99.90
2022-09-20T00:38:43.740Z,99.90
2022-09-20T00:41:11.091Z,99.90
2022-09-20T00:43:40.640Z,99.90
2022-09-20T00:46:32.357Z,99.90
2022-09-20T00:49:18.655Z,99.90
2022-09-20T00:51:49.513Z,99.90
2022-09-20T00:54:20.478Z,99.90
2022-09-20T00:56:48.516Z,99.90
2022-09-20T00:59:30.664Z,99.90
2022-09-20T01:02:12.379Z,99.90
2022-09-20T01:04:41.190Z,99.90
2022-09-20T01:07:10.788Z,99.90
2022-09-20T01:09:37.652Z,99.90
2022-09-20T01:12:09.447Z,99.90
2022-09-20T01:14:36.604Z,99.90
2022-09-20T01:17:06.002Z,99.90
2022-09-20T01:20:08.069Z,99.90
2022-09-20T01:22:58.543Z,99.90
2022-09-20T01:25:25.339Z,99.90
2022-09-20T01:27:54.171Z,99.90
2022-09-20T01:30:24.631Z,99.90
2022-09-20T01:33:03.947Z,99.90
2022-09-20T01:35:34.536Z,99.90
2022-09-20T01:38:20.615Z,99.90
2022-09-20T01:41:26.464Z,99.90
2022-09-20T01:43:58.762Z,99.90
2022-09-20T01:46:31.564Z,99.90
2022-09-20T01:49:21.737Z,99.90
2022-09-20T01:52:26.575Z,99.90
2022-09-20T01:54:59.274Z,99.90
2022-09-20T01:57:41.685Z,99.90
2022-09-20T02:00:12.115Z,99.90
2022-09-20T02:03:12.751Z,99.90
2022-09-20T02:06:00.611Z,99.90
2022-09-20T02:09:12.716Z,99.90
2022-09-20T02:11:46.362Z,99.90
2022-09-20T02:14:41.892Z,99.90
2022-09-20T02:17:18.156Z,99.90
2022-09-20T02:20:08.138Z,99.90
2022-09-20T02:23:04.429Z,99.90
2022-09-20T02:25:50.458Z,99.90
2022-09-20T02:28:50.512Z,99.90
2022-09-20T02:31:39.212Z,99.90
2022-09-20T02:34:37.929Z,99.90
2022-09-20T02:37:19.971Z,99.90
2022-09-20T02:40:10.149Z,99.90
2022-09-20T02:42:55.166Z,99.90
2022-09-20T02:45:48.374Z,99.90
2022-09-20T02:48:22.120Z,99.90
2022-09-20T02:51:04.138Z,99.90
2022-09-20T02:54:01.086Z,99.90
2022-09-20T02:56:34.568Z,99.90
2022-09-20T02:59:25.219Z,99.90
2022-09-20T03:02:19.600Z,99.90
2022-09-20T03:05:23.689Z,99.90
2022-09-20T03:08:04.230Z,99.90
2022-09-20T03:10:52.630Z,99.90
2022-09-20T03:13:47.383Z,99.90
2022-09-20T03:16:36.523Z,99.90
2022-09-20T03:19:34.026Z,99.90
2022-09-20T03:22:20.820Z,99.90
2022-09-20T03:25:09.301Z,99.90
2022-09-20T03:27:39.038Z,99.90
2022-09-20T03:30:33.072Z,99.90
2022-09-20T03:33:11.789Z,99.90
2022-09-20T03:35:50.946Z,99.90
2022-09-20T03:39:22.906Z,99.90
2022-09-20T03:42:34.020Z,99.90
2022-09-20T03:45:40.356Z,99.90
2022-09-20T03:48:42.275Z,99.90
2022-09-20T03:51:29.139Z,99.90
2022-09-20T03:54:31.202Z,99.90
2022-09-20T03:57:29.148Z,99.90
2022-09-20T04:00:13.853Z,99.90
2022-09-20T04:02:56.002Z,99.90
2022-09-20T04:05:52.657Z,99.90
2022-09-20T04:08:53.736Z,99.90
2022-09-20T04:11:59.635Z,99.90
2022-09-20T04:14:38.519Z,99.90
2022-09-20T04:17:27.504Z,99.90
2022-09-20T04:20:15.213Z,99.90
2022-09-20T04:22:44.614Z,99.90
2022-09-20T04:25:22.492Z,99.90
2022-09-20T04:27:54.984Z,99.90
2022-09-20T04:30:30.169Z,99.90
2022-09-20T04:33:05.732Z,99.90
2022-09-20T04:36:10.304Z,99.90
2022-09-20T04:38:37.502Z,99.90
2022-09-20T04:41:28.311Z,99.90
2022-09-20T04:44:12.026Z,99.90
2022-09-20T04:47:15.291Z,99.90
2022-09-20T04:50:06.225Z,99.90
2022-09-20T04:53:10.636Z,99.90
2022-09-20T04:55:52.947Z,99.90
2022-09-20T04:58:38.550Z,99.90
2022-09-20T05:01:17.725Z,99.90
2022-09-20T05:04:20.306Z,99.90
2022-09-20T05:07:08.779Z,99.90
2022-09-20T05:10:02.764Z,99.90
2022-09-20T05:12:44.678Z,99.90
2022-09-20T05:15:21.330Z,99.90
2022-09-20T05:17:51.348Z,99.90
2022-09-20T05:20:45.716Z,99.90
2022-09-20T05:23:27.121Z,99.90
2022-09-20T05:26:14.046Z,99.90
2022-09-20T05:29:18.648Z,99.90
2022-09-20T05:31:51.276Z,99.90
2022-09-20T05:34:44.942Z,99.90
2022-09-20T05:37:38.972Z,99.90
2022-09-20T05:40:41.309Z,99.90
2022-09-20T05:43:20.866Z,99.90
2022-09-20T05:46:05.095Z,99.90
2022-09-20T05:48:56.628Z,99.90
2022-09-20T05:51:40.319Z,99.90
2022-09-20T05:54:21.550Z,99.90
2022-09-20T05:57:15.860Z,99.90
2022-09-20T06:00:19.646Z,99.90
2022-09-20T06:02:55.171Z,99.90
2022-09-20T06:05:45.638Z,99.90
2022-09-20T06:08:40.254Z,99.90
2022-09-20T06:11:46.899Z,99.90
2022-09-20T06:14:37.862Z,99.90
2022-09-20T06:17:24.501Z,99.90
2022-09-20T06:20:16.608Z,99.90
2022-09-20T06:22:47.342Z,99.90
2022-09-20T06:25:33.355Z,99.90
2022-09-20T06:28:12.103Z,99.90
2022-09-20T06:30:47.966Z,99.90
2022-09-20T06:33:25.454Z,99.90
2022-09-20T06:36:35.557Z,99.90
2022-09-20T06:39:36.311Z,99.90
2022-09-20T06:42:03.351Z,99.90
2022-09-20T06:44:31.247Z,99.90
2022-09-20T06:46:58.393Z,99.90
2022-09-20T06:49:29.145Z,99.90
2022-09-20T06:51:56.651Z,99.90
2022-09-20T06:54:23.545Z,99.90
2022-09-20T06:56:53.158Z,99.90
2022-09-20T06:59:20.456Z,99.90
2022-09-20T07:01:47.685Z,99.90
2022-09-20T07:04:14.614Z,99.90
2022-09-20T07:06:41.974Z,99.90
2022-09-20T07:09:11.503Z,99.90
2022-09-20T07:11:38.352Z,99.90
2022-09-20T07:14:08.012Z,99.90
2022-09-20T07:16:36.298Z,99.90
2022-09-20T07:19:05.295Z,99.90
2022-09-20T07:21:32.436Z,99.90
2022-09-20T07:23:59.295Z,99.90
2022-09-20T07:26:28.586Z,99.90
2022-09-20T07:28:57.379Z,99.90
2022-09-20T07:31:26.445Z,99.90
2022-09-20T07:33:53.452Z,99.90
2022-09-20T07:36:20.970Z,99.90
2022-09-20T07:38:50.441Z,99.90
2022-09-20T07:41:23.023Z,99.90
2022-09-20T07:43:51.097Z,99.90
2022-09-20T07:46:22.256Z,99.90
2022-09-20T07:48:49.231Z,99.90
2022-09-20T07:51:16.752Z,99.90
2022-09-20T07:53:43.614Z,99.90
2022-09-20T07:56:14.202Z,99.90
2022-09-20T07:58:42.775Z,99.90
2022-09-20T08:01:13.408Z,99.90
2022-09-20T08:03:42.919Z,99.90
2022-09-20T08:06:14.540Z,99.90
2022-09-20T08:08:41.393Z,99.90
2022-09-20T08:11:10.930Z,99.90
2022-09-20T08:16:28.174Z,99.90
2022-09-20T08:18:57.834Z,99.90
2022-09-20T08:21:27.467Z,98.20
2022-09-20T08:23:54.594Z,91.20
2022-09-20T08:26:24.751Z,90.00
2022-09-20T08:28:54.075Z,92.20
2022-09-20T08:31:24.342Z,91.80
2022-09-20T08:33:53.011Z,90.90
2022-09-20T08:36:24.929Z,84.80
2022-09-20T08:41:43.713Z,74.10
2022-09-20T08:44:26.422Z,65.10
2022-09-20T08:47:06.099Z,59.60
2022-09-20T08:49:33.833Z,61.70
2022-09-20T08:52:03.269Z,68.90
2022-09-20T08:54:33.356Z,76.10
2022-09-20T08:57:10.572Z,87.80
2022-09-20T08:59:37.482Z,96.30
2022-09-20T09:02:17.941Z,93.00
2022-09-20T09:04:45.475Z,94.30
2022-09-20T09:07:19.792Z,90.60
2022-09-20T09:09:48.405Z,90.70
2022-09-20T09:12:23.314Z,92.90
2022-09-20T09:14:55.190Z,95.10
2022-09-20T09:17:28.305Z,95.60
2022-09-20T09:20:14.039Z,98.00
2022-09-20T09:22:44.116Z,97.70
2022-09-20T09:25:27.811Z,89.30
2022-09-20T09:28:00.953Z,87.50
2022-09-20T09:30:30.272Z,90.00
2022-09-20T09:33:15.914Z,90.10
2022-09-20T09:35:43.794Z,93.60
2022-09-20T09:38:24.199Z,97.30
2022-09-20T09:40:53.010Z,96.30
2022-09-20T09:43:27.106Z,94.90
2022-09-20T09:45:55.352Z,83.20
2022-09-20T09:48:29.210Z,70.00
2022-09-20T09:51:11.608Z,65.70
2022-09-20T09:53:39.933Z,64.60
2022-09-20T09:56:16.908Z,66.50
2022-09-20T09:59:10.585Z,71.80
2022-09-20T10:02:13.273Z,78.50
2022-09-20T10:04:59.547Z,84.90
2022-09-20T10:07:42.947Z,91.60
2022-09-20T10:10:34.364Z,97.80
2022-09-20T10:13:26.065Z,99.60
2022-09-20T10:16:09.371Z,99.90
2022-09-20T10:19:19.459Z,99.90
2022-09-20T10:22:11.139Z,99.90
2022-09-20T10:24:59.559Z,99.90
2022-09-20T10:27:35.938Z,99.90
2022-09-20T10:30:22.235Z,99.90
2022-09-20T10:33:27.460Z,99.90
2022-09-20T10:36:03.970Z,99.90
2022-09-20T10:38:50.180Z,99.90
2022-09-20T10:42:03.766Z,99.90
2022-09-20T10:44:54.800Z,99.90
2022-09-20T10:47:31.465Z,99.90
2022-09-20T10:50:29.428Z,99.90
2022-09-20T10:53:20.625Z,99.90
2022-09-20T10:56:13.299Z,99.90
2022-09-20T10:58:56.130Z,99.90
2022-09-20T11:01:49.439Z,99.90
2022-09-20T11:04:53.594Z,99.90
2022-09-20T11:07:32.895Z,99.90
2022-09-20T11:10:14.911Z,99.90
2022-09-20T11:13:11.402Z,99.90
2022-09-20T11:15:48.378Z,99.90
2022-09-20T11:18:23.263Z,99.90
2022-09-20T11:21:02.644Z,99.90
2022-09-20T11:23:57.774Z,99.90
2022-09-20T11:26:31.193Z,99.90
2022-09-20T11:29:14.926Z,99.60
2022-09-20T11:31:45.072Z,97.70
2022-09-20T11:34:34.737Z,97.20
2022-09-20T11:37:03.418Z,98.40
2022-09-20T11:39:46.346Z,98.60
2022-09-20T11:42:19.141Z,98.60
2022-09-20T11:44:46.536Z,99.90
2022-09-20T11:47:54.516Z,99.90
2022-09-20T11:50:57.123Z,99.90
2022-09-20T11:53:37.052Z,99.90
2022-09-20T11:56:20.043Z,99.90
2022-09-20T11:58:54.158Z,99.90
2022-09-20T12:01:34.759Z,99.90
2022-09-20T12:04:32.832Z,99.90
2022-09-20T12:07:09.798Z,99.90
2022-09-20T12:09:43.340Z,99.90
2022-09-20T12:12:29.305Z,99.90
2022-09-20T12:14:58.953Z,99.90
2022-09-20T12:17:47.889Z,99.90
2022-09-20T12:20:33.042Z,99.90
2022-09-20T12:23:40.855Z,98.80
2022-09-20T12:26:21.630Z,98.30
2022-09-20T12:28:53.327Z,99.60
2022-09-20T12:31:29.215Z,99.90
2022-09-20T12:34:02.086Z,99.90
2022-09-20T12:36:38.254Z,99.50
2022-09-20T12:39:11.329Z,98.70
2022-09-20T12:41:59.188Z,98.50
2022-09-20T12:44:35.140Z,98.90
2022-09-20T12:47:06.566Z,99.60
2022-09-20T12:50:04.536Z,99.80
2022-09-20T12:52:52.995Z,99.90
2022-09-20T12:55:26.973Z,99.90
2022-09-20T12:58:01.220Z,99.90
2022-09-20T13:00:46.416Z,99.90
2022-09-20T13:03:21.631Z,99.90
2022-09-20T13:06:10.148Z,99.90
2022-09-20T13:08:42.860Z,99.90
2022-09-20T13:11:34.030Z,99.90
2022-09-20T13:14:12.292Z,99.90
2022-09-20T13:16:51.521Z,99.90
2022-09-20T13:19:23.568Z,99.90
2022-09-20T13:22:09.379Z,99.90
2022-09-20T13:24:41.956Z,99.90
2022-09-20T13:27:11.940Z,99.90
2022-09-20T13:29:44.698Z,99.90
2022-09-20T13:32:31.410Z,99.90
2022-09-20T13:35:10.258Z,99.90
2022-09-20T13:37:43.011Z,99.90
2022-09-20T13:40:25.434Z,99.90
2022-09-20T13:43:19.677Z,99.90
2022-09-20T13:45:47.614Z,99.90
2022-09-20T13:48:16.727Z,99.90
2022-09-20T13:50:48.055Z,99.90
2022-09-20T13:53:39.469Z,99.90
2022-09-20T13:56:16.416Z,99.90
2022-09-20T13:58:43.838Z,99.90
2022-09-20T14:01:21.802Z,99.90
2022-09-20T14:03:49.450Z,99.90
2022-09-20T14:06:16.663Z,99.90
2022-09-20T14:08:50.895Z,99.90
2022-09-20T14:11:22.680Z,99.90
2022-09-20T14:13:55.885Z,99.90
2022-09-20T14:16:28.592Z,99.90
2022-09-20T14:18:57.888Z,99.90
2022-09-20T14:21:27.916Z,99.90
2022-09-20T14:24:02.806Z,99.90
2022-09-20T14:26:39.201Z,99.90
2022-09-20T14:29:33.985Z,99.90
2022-09-20T14:32:18.796Z,99.90
2022-09-20T14:34:52.244Z,99.90
2022-09-20T14:37:34.560Z,99.90
2022-09-20T14:40:07.219Z,99.90
2022-09-20T14:42:43.715Z,99.90
2022-09-20T14:45:30.317Z,99.90
2022-09-20T14:47:57.795Z,99.90
2022-09-20T14:50:38.183Z,99.90
2022-09-20T14:53:11.177Z,99.90
2022-09-20T14:56:17.638Z,99.90
2022-09-20T14:59:06.766Z,99.90
2022-09-20T15:01:35.711Z,99.90
2022-09-20T15:04:08.795Z,99.90
2022-09-20T15:06:40.107Z,99.90
2022-09-20T15:09:09.722Z,99.90
2022-09-20T15:11:36.720Z,99.90
2022-09-20T15:14:03.860Z,99.90
2022-09-20T15:16:31.816Z,99.90
2022-09-20T15:18:59.124Z,99.90
2022-09-20T15:21:26.645Z,99.90
2022-09-20T15:23:54.015Z,99.90
2022-09-20T15:26:21.522Z,99.90
2022-09-20T15:28:48.902Z,99.90
2022-09-20T15:31:17.222Z,99.90
2022-09-20T15:33:44.144Z,99.90
2022-09-20T15:36:11.351Z,99.90
2022-09-20T15:38:39.076Z,99.90
2022-09-20T15:41:06.028Z,99.90
2022-09-20T15:43:33.031Z,99.90
2022-09-20T15:46:16.950Z,99.90
2022-09-20T15:48:43.814Z,99.90
2022-09-20T15:51:12.211Z,99.90
2022-09-20T15:53:53.822Z,99.90
2022-09-20T15:56:27.386Z,99.90
2022-09-20T15:58:59.186Z,99.90
2022-09-20T16:01:29.320Z,99.90
2022-09-20T16:03:56.607Z,99.90
2022-09-20T16:06:24.766Z,99.90
2022-09-20T16:08:52.396Z,99.90
2022-09-20T16:11:22.924Z,99.90
2022-09-20T16:13:57.971Z,99.90
2022-09-20T16:16:26.480Z,99.90
2022-09-20T16:19:12.426Z,99.90
2022-09-20T16:21:40.957Z,99.90
2022-09-20T16:24:09.181Z,99.90
2022-09-20T16:26:37.286Z,99.90
2022-09-20T16:29:05.034Z,99.90
2022-09-20T16:31:35.055Z,99.90
2022-09-20T16:34:05.183Z,99.90
2022-09-20T16:36:33.108Z,99.90
2022-09-20T16:39:01.223Z,99.90
2022-09-20T16:41:29.008Z,99.90
2022-09-20T16:43:56.244Z,99.90
2022-09-20T16:46:27.192Z,99.90
2022-09-20T16:49:00.891Z,99.90
2022-09-20T16:51:36.445Z,99.90
2022-09-20T16:54:06.737Z,99.90
2022-09-20T16:56:35.805Z,99.90
2022-09-20T16:59:04.365Z,99.90
2022-09-20T17:01:33.605Z,99.90
2022-09-20T17:04:05.412Z,99.90
2022-09-20T17:06:37.052Z,99.90
2022-09-20T17:09:06.260Z,99.90
2022-09-20T17:11:36.952Z,99.90
2022-09-20T17:14:04.774Z,99.90
2022-09-20T17:16:37.412Z,99.90
2022-09-20T17:19:12.851Z,99.90
2022-09-20T17:21:46.166Z,99.90
2022-09-20T17:24:14.183Z,99.90
2022-09-20T17:26:44.660Z,99.90
2022-09-20T17:29:15.270Z,99.90
2022-09-20T17:31:48.777Z,99.90
2022-09-20T17:34:21.554Z,99.90
2022-09-20T17:36:50.346Z,99.90
2022-09-20T17:39:17.786Z,99.90
2022-09-20T17:41:46.890Z,99.90
2022-09-20T17:44:15.260Z,99.90
2022-09-20T17:46:44.213Z,99.90
2022-09-20T17:49:13.592Z,99.90
2022-09-20T17:51:48.518Z,99.90
2022-09-20T17:54:16.016Z,99.90
2022-09-20T17:56:46.433Z,99.90
2022-09-20T17:59:17.780Z,99.90
2022-09-20T18:01:49.484Z,99.90
2022-09-20T18:04:16.730Z,99.90
2022-09-20T18:06:51.587Z,99.90
2022-09-20T18:09:21.882Z,99.90
2022-09-20T18:11:51.467Z,99.90
2022-09-20T18:14:23.869Z,99.90
2022-09-20T18:16:58.208Z,99.90
2022-09-20T18:19:32.292Z,99.90
2022-09-20T18:22:00.281Z,99.90
2022-09-20T18:24:27.231Z,99.90
2022-09-20T18:26:54.185Z,99.90
2022-09-20T18:29:21.562Z,99.90
2022-09-20T18:31:54.305Z,99.90
2022-09-20T18:34:23.673Z,99.90
2022-09-20T18:36:53.587Z,99.90
2022-09-20T18:39:25.058Z,99.90
2022-09-20T18:41:53.102Z,99.90
2022-09-20T18:44:21.648Z,99.90
2022-09-20T18:46:49.330Z,99.90
2022-09-20T18:49:17.081Z,99.90
2022-09-20T18:51:45.488Z,99.90
2022-09-20T18:54:12.649Z,99.90
2022-09-20T18:56:41.900Z,99.90
2022-09-20T18:59:20.711Z,99.90
2022-09-20T19:01:53.777Z,99.90
2022-09-20T19:04:33.619Z,99.90
2022-09-20T19:07:23.896Z,99.90
2022-09-20T19:10:05.833Z,99.90
2022-09-20T19:12:48.467Z,99.90
2022-09-20T19:15:22.708Z,99.90
2022-09-20T19:18:06.454Z,99.90
2022-09-20T19:20:58.526Z,99.90
2022-09-20T19:23:47.158Z,99.90
2022-09-20T19:26:24.484Z,99.90
2022-09-20T19:28:55.125Z,99.90
2022-09-20T19:31:23.939Z,99.90
2022-09-20T19:33:54.458Z,99.90
2022-09-20T19:36:30.692Z,99.90
2022-09-20T19:39:22.896Z,99.90
2022-09-20T19:42:24.529Z,99.90
2022-09-20T19:45:01.946Z,99.90
2022-09-20T19:47:45.033Z,99.90
2022-09-20T19:50:33.321Z,99.90
2022-09-20T19:53:04.971Z,99.90
2022-09-20T19:55:33.368Z,99.90
2022-09-20T19:58:00.948Z,99.90
2022-09-20T20:00:28.390Z,99.90
2022-09-20T20:02:55.500Z,99.90
2022-09-20T20:05:27.644Z,99.90
2022-09-20T20:08:16.363Z,99.90
2022-09-20T20:11:05.377Z,99.90
2022-09-20T20:14:09.605Z,99.90
2022-09-20T20:17:00.428Z,99.90
2022-09-20T20:19:43.011Z,99.90
2022-09-20T20:22:35.753Z,99.90
2022-09-20T20:25:03.361Z,99.90
2022-09-20T20:27:32.473Z,99.90
2022-09-20T20:29:59.767Z,99.90
2022-09-20T20:32:27.546Z,99.90
2022-09-20T20:34:54.378Z,99.90
2022-09-20T20:37:24.369Z,99.90
2022-09-20T20:39:52.140Z,99.90
2022-09-20T20:42:20.112Z,99.90
2022-09-20T20:44:47.828Z,99.90
2022-09-20T20:47:14.897Z,99.90
2022-09-20T20:49:42.379Z,99.90
2022-09-20T20:52:09.668Z,99.90
2022-09-20T20:54:37.468Z,99.90
2022-09-20T20:57:04.543Z,99.90
2022-09-20T20:59:31.402Z,99.90
2022-09-20T21:01:58.523Z,99.90
2022-09-20T21:04:27.495Z,99.90
2022-09-20T21:06:55.059Z,99.90
2022-09-20T21:09:22.091Z,99.90
2022-09-20T21:11:48.941Z,99.90
2022-09-20T21:14:16.517Z,99.90
2022-09-20T21:16:43.943Z,99.90
2022-09-20T21:19:15.022Z,99.90
2022-09-20T21:21:43.812Z,99.90
2022-09-20T21:24:15.245Z,99.90
2022-09-20T21:26:42.509Z,99.90
2022-09-20T21:29:14.468Z,99.90
2022-09-20T21:31:44.178Z,99.90
2022-09-20T21:34:13.082Z,99.90
2022-09-20T21:36:44.629Z,99.90
2022-09-20T21:39:12.192Z,99.90
2022-09-20T21:41:39.840Z,99.90
2022-09-20T21:44:07.674Z,99.90
2022-09-20T21:46:39.193Z,99.90
2022-09-20T21:49:08.719Z,99.90
2022-09-20T21:51:37.546Z,99.90
2022-09-20T21:54:05.005Z,99.90
2022-09-20T21:56:34.825Z,99.90
2022-09-20T21:59:04.090Z,99.90
2022-09-20T22:01:34.971Z,99.90
2022-09-20T22:04:08.264Z,99.90
2022-09-20T22:06:38.422Z,99.90
2022-09-20T22:09:08.635Z,99.90
2022-09-20T22:11:47.148Z,99.90
2022-09-20T22:14:18.163Z,99.90
2022-09-20T22:16:46.662Z,99.90
2022-09-20T22:19:16.936Z,99.90
2022-09-20T22:21:46.438Z,99.90
2022-09-20T22:24:14.458Z,99.90
2022-09-20T22:26:50.373Z,99.90
2022-09-20T22:29:18.537Z,99.90
2022-09-20T22:31:47.474Z,99.90
2022-09-20T22:34:17.475Z,99.90
2022-09-20T22:36:45.541Z,99.90
2022-09-20T22:39:13.741Z,99.90
2022-09-20T22:41:42.548Z,99.90
2022-09-20T22:44:10.505Z,99.90
2022-09-20T22:46:38.223Z,99.90
2022-09-20T22:49:07.757Z,99.90
2022-09-20T22:51:35.255Z,99.90
2022-09-20T22:54:10.682Z,99.90
2022-09-20T22:56:38.567Z,99.90
2022-09-20T22:59:07.854Z,99.90
2022-09-20T23:01:37.718Z,99.90
2022-09-20T23:04:10.815Z,99.90
2022-09-20T23:06:54.854Z,99.90
2022-09-20T23:09:25.305Z,99.90
2022-09-20T23:11:52.664Z,99.90
2022-09-20T23:14:21.549Z,99.90
2022-09-20T23:16:49.009Z,99.90
2022-09-20T23:19:16.596Z,99.90
2022-09-20T23:21:44.066Z,99.90
2022-09-20T23:24:13.431Z,99.90
2022-09-20T23:26:41.790Z,99.90
2022-09-20T23:29:12.037Z,99.90
2022-09-20T23:31:41.038Z,99.90
2022-09-20T23:34:08.442Z,99.90
2022-09-20T23:36:38.215Z,99.90
2022-09-20T23:39:06.572Z,99.90
2022-09-20T23:41:33.967Z,99.90
2022-09-20T23:44:01.056Z,99.90
2022-09-20T23:46:28.414Z,99.90
2022-09-20T23:48:55.441Z,99.90
2022-09-20T23:51:25.054Z,99.90
2022-09-20T23:53:53.474Z,99.90
2022-09-20T23:56:21.599Z,99.90
2022-09-20T23:58:48.857Z,99.90
